sensor_id;sensor_type;location;lat;lon;timestamp;P1;durP1;ratioP1;P2;durP2;ratioP2
4915;SDS011;70796;52.406;13.230;2023-07-20T00:00:02;13.30;;;9.70;;
4915;SDS011;70796;52.406;13.230;2023-07-20T00:02:38;10.53;;;8.90;;
4915;SDS011;70796;52.406;13.230;2023-07-20T00:05:04;9.50;;;8.60;;
4915;SDS011;70796;52.406;13.230;2023-07-20T00:07:32;9.23;;;8.33;;
4915;SDS011;70796;52.406;13.230;2023-07-20T00:09:58;9.90;;;8.30;;
4915;SDS011;70796;52.406;13.230;2023-07-20T00:12:25;8.77;;;7.90;;
4915;SDS011;70796;52.406;13.230;2023-07-20T00:14:51;13.53;;;8.73;;
4915;SDS011;70796;52.406;13.230;2023-07-20T00:17:20;12.63;;;9.77;;
4915;SDS011;70796;52.406;13.230;2023-07-20T00:19:47;11.00;;;9.33;;
4915;SDS011;70796;52.406;13.230;2023-07-20T00:22:13;10.60;;;9.53;;
4915;SDS011;70796;52.406;13.230;2023-07-20T00:24:40;10.53;;;8.70;;
4915;SDS011;70796;52.406;13.230;2023-07-20T00:27:06;13.13;;;9.43;;
4915;SDS011;70796;52.406;13.230;2023-07-20T00:29:33;10.80;;;8.97;;
4915;SDS011;70796;52.406;13.230;2023-07-20T00:31:59;11.57;;;9.00;;
4915;SDS011;70796;52.406;13.230;2023-07-20T00:34:26;10.57;;;8.97;;
4915;SDS011;70796;52.406;13.230;2023-07-20T00:36:52;11.57;;;9.60;;
4915;SDS011;70796;52.406;13.230;2023-07-20T00:39:19;10.60;;;9.17;;
4915;SDS011;70796;52.406;13.230;2023-07-20T00:41:45;10.60;;;9.53;;
4915;SDS011;70796;52.406;13.230;2023-07-20T00:44:12;11.60;;;9.57;;
4915;SDS011;70796;52.406;13.230;2023-07-20T00:46:38;10.60;;;9.60;;
4915;SDS011;70796;52.406;13.230;2023-07-20T00:49:08;11.00;;;9.27;;
4915;SDS011;70796;52.406;13.230;2023-07-20T00:51:36;12.07;;;10.77;;
4915;SDS011;70796;52.406;13.230;2023-07-20T00:54:03;13.90;;;11.43;;
4915;SDS011;70796;52.406;13.230;2023-07-20T00:56:29;10.57;;;9.47;;
4915;SDS011;70796;52.406;13.230;2023-07-20T00:58:56;11.90;;;10.67;;
4915;SDS011;70796;52.406;13.230;2023-07-20T01:01:22;16.30;;;11.67;;
4915;SDS011;70796;52.406;13.230;2023-07-20T01:03:49;14.37;;;11.70;;
4915;SDS011;70796;52.406;13.230;2023-07-20T01:06:24;14.83;;;12.50;;
4915;SDS011;70796;52.406;13.230;2023-07-20T01:09:08;16.97;;;11.47;;
4915;SDS011;70796;52.406;13.230;2023-07-20T01:11:49;15.83;;;11.57;;
4915;SDS011;70796;52.406;13.230;2023-07-20T01:14:31;13.33;;;11.83;;
4915;SDS011;70796;52.406;13.230;2023-07-20T01:16:58;15.47;;;12.10;;
4915;SDS011;70796;52.406;13.230;2023-07-20T01:19:25;12.63;;;11.10;;
4915;SDS011;70796;52.406;13.230;2023-07-20T01:32:34;13.20;;;11.80;;
4915;SDS011;70796;52.406;13.230;2023-07-20T01:35:01;13.73;;;11.07;;
4915;SDS011;70796;52.406;13.230;2023-07-20T01:37:28;13.80;;;12.40;;
4915;SDS011;70796;52.406;13.230;2023-07-20T01:39:56;18.60;;;11.47;;
4915;SDS011;70796;52.406;13.230;2023-07-20T01:42:24;12.60;;;10.67;;
4915;SDS011;70796;52.406;13.230;2023-07-20T01:44:51;12.37;;;11.07;;
4915;SDS011;70796;52.406;13.230;2023-07-20T01:47:19;13.40;;;11.50;;
4915;SDS011;70796;52.406;13.230;2023-07-20T01:49:45;13.90;;;12.00;;
4915;SDS011;70796;52.406;13.230;2023-07-20T01:52:12;13.60;;;10.90;;
4915;SDS011;70796;52.406;13.230;2023-07-20T01:54:38;13.30;;;10.73;;
4915;SDS011;70796;52.406;13.230;2023-07-20T01:57:05;14.73;;;11.43;;
4915;SDS011;70796;52.406;13.230;2023-07-20T01:59:31;12.00;;;10.73;;
4915;SDS011;70796;52.406;13.230;2023-07-20T02:01:58;16.70;;;11.97;;
4915;SDS011;70796;52.406;13.230;2023-07-20T02:04:26;14.87;;;11.50;;
4915;SDS011;70796;52.406;13.230;2023-07-20T02:06:52;11.77;;;10.57;;
4915;SDS011;70796;52.406;13.230;2023-07-20T02:09:19;11.80;;;10.60;;
4915;SDS011;70796;52.406;13.230;2023-07-20T02:11:46;12.33;;;11.03;;
4915;SDS011;70796;52.406;13.230;2023-07-20T02:14:12;13.37;;;10.50;;
4915;SDS011;70796;52.406;13.230;2023-07-20T02:16:39;12.47;;;11.30;;
4915;SDS011;70796;52.406;13.230;2023-07-20T02:19:05;12.43;;;11.23;;
4915;SDS011;70796;52.406;13.230;2023-07-20T02:21:33;17.10;;;11.07;;
4915;SDS011;70796;52.406;13.230;2023-07-20T02:24:00;14.03;;;12.40;;
4915;SDS011;70796;52.406;13.230;2023-07-20T02:26:27;16.77;;;11.40;;
4915;SDS011;70796;52.406;13.230;2023-07-20T02:28:54;20.83;;;12.67;;
4915;SDS011;70796;52.406;13.230;2023-07-20T02:31:21;13.73;;;11.97;;
4915;SDS011;70796;52.406;13.230;2023-07-20T02:33:48;18.20;;;12.20;;
4915;SDS011;70796;52.406;13.230;2023-07-20T02:36:15;13.53;;;12.07;;
4915;SDS011;70796;52.406;13.230;2023-07-20T02:38:44;15.70;;;14.03;;
4915;SDS011;70796;52.406;13.230;2023-07-20T02:41:11;16.20;;;13.30;;
4915;SDS011;70796;52.406;13.230;2023-07-20T02:43:39;18.80;;;13.67;;
4915;SDS011;70796;52.406;13.230;2023-07-20T02:46:05;18.80;;;13.87;;
4915;SDS011;70796;52.406;13.230;2023-07-20T02:48:32;15.53;;;12.83;;
4915;SDS011;70796;52.406;13.230;2023-07-20T02:50:59;19.70;;;15.13;;
4915;SDS011;70796;52.406;13.230;2023-07-20T02:53:25;18.70;;;14.43;;
4915;SDS011;70796;52.406;13.230;2023-07-20T02:55:52;18.77;;;14.03;;
4915;SDS011;70796;52.406;13.230;2023-07-20T02:58:18;16.00;;;14.30;;
4915;SDS011;70796;52.406;13.230;2023-07-20T03:00:45;19.33;;;14.87;;
4915;SDS011;70796;52.406;13.230;2023-07-20T03:03:12;16.83;;;15.03;;
4915;SDS011;70796;52.406;13.230;2023-07-20T03:05:40;17.50;;;15.60;;
4915;SDS011;70796;52.406;13.230;2023-07-20T03:08:07;19.33;;;16.10;;
4915;SDS011;70796;52.406;13.230;2023-07-20T03:10:38;17.80;;;15.30;;
4915;SDS011;70796;52.406;13.230;2023-07-20T03:13:05;19.03;;;14.33;;
4915;SDS011;70796;52.406;13.230;2023-07-20T03:15:31;22.13;;;15.87;;
4915;SDS011;70796;52.406;13.230;2023-07-20T03:17:58;21.37;;;16.90;;
4915;SDS011;70796;52.406;13.230;2023-07-20T03:20:27;19.63;;;16.03;;
4915;SDS011;70796;52.406;13.230;2023-07-20T03:22:53;21.13;;;17.53;;
4915;SDS011;70796;52.406;13.230;2023-07-20T03:25:20;21.53;;;17.63;;
4915;SDS011;70796;52.406;13.230;2023-07-20T03:27:47;18.30;;;16.40;;
4915;SDS011;70796;52.406;13.230;2023-07-20T03:30:14;22.60;;;17.63;;
4915;SDS011;70796;52.406;13.230;2023-07-20T03:32:40;20.83;;;16.70;;
4915;SDS011;70796;52.406;13.230;2023-07-20T03:35:08;20.63;;;16.60;;
4915;SDS011;70796;52.406;13.230;2023-07-20T03:37:35;21.17;;;15.50;;
4915;SDS011;70796;52.406;13.230;2023-07-20T03:40:02;17.23;;;15.43;;
4915;SDS011;70796;52.406;13.230;2023-07-20T03:42:30;19.67;;;16.17;;
4915;SDS011;70796;52.406;13.230;2023-07-20T03:44:57;16.90;;;15.17;;
4915;SDS011;70796;52.406;13.230;2023-07-20T03:47:24;18.03;;;15.17;;
4915;SDS011;70796;52.406;13.230;2023-07-20T03:49:51;17.53;;;15.27;;
4915;SDS011;70796;52.406;13.230;2023-07-20T03:52:17;20.50;;;15.67;;
4915;SDS011;70796;52.406;13.230;2023-07-20T03:54:43;22.90;;;15.70;;
4915;SDS011;70796;52.406;13.230;2023-07-20T03:57:10;29.80;;;16.10;;
4915;SDS011;70796;52.406;13.230;2023-07-20T03:59:37;18.33;;;15.80;;
4915;SDS011;70796;52.406;13.230;2023-07-20T04:02:04;19.60;;;15.77;;
4915;SDS011;70796;52.406;13.230;2023-07-20T04:04:32;26.20;;;16.23;;
4915;SDS011;70796;52.406;13.230;2023-07-20T04:06:58;20.97;;;17.27;;
4915;SDS011;70796;52.406;13.230;2023-07-20T04:09:24;21.77;;;17.43;;
4915;SDS011;70796;52.406;13.230;2023-07-20T04:11:51;19.20;;;16.43;;
4915;SDS011;70796;52.406;13.230;2023-07-20T04:14:17;18.87;;;16.00;;
4915;SDS011;70796;52.406;13.230;2023-07-20T04:16:46;18.63;;;16.33;;
4915;SDS011;70796;52.406;13.230;2023-07-20T04:19:13;18.80;;;16.70;;
4915;SDS011;70796;52.406;13.230;2023-07-20T04:21:40;18.90;;;16.50;;
4915;SDS011;70796;52.406;13.230;2023-07-20T04:24:07;23.77;;;17.17;;
4915;SDS011;70796;52.406;13.230;2023-07-20T04:26:35;20.57;;;16.30;;
4915;SDS011;70796;52.406;13.230;2023-07-20T04:29:02;19.13;;;16.40;;
4915;SDS011;70796;52.406;13.230;2023-07-20T04:31:35;17.67;;;15.77;;
4915;SDS011;70796;52.406;13.230;2023-07-20T04:34:02;19.40;;;16.33;;
4915;SDS011;70796;52.406;13.230;2023-07-20T04:36:29;16.03;;;14.37;;
4915;SDS011;70796;52.406;13.230;2023-07-20T04:38:56;22.17;;;14.40;;
4915;SDS011;70796;52.406;13.230;2023-07-20T04:41:23;17.50;;;14.03;;
4915;SDS011;70796;52.406;13.230;2023-07-20T04:43:54;17.20;;;15.03;;
4915;SDS011;70796;52.406;13.230;2023-07-20T04:46:25;16.23;;;14.53;;
4915;SDS011;70796;52.406;13.230;2023-07-20T04:48:53;19.10;;;14.37;;
4915;SDS011;70796;52.406;13.230;2023-07-20T04:51:20;17.47;;;13.60;;
4915;SDS011;70796;52.406;13.230;2023-07-20T04:53:49;18.37;;;14.10;;
4915;SDS011;70796;52.406;13.230;2023-07-20T04:56:15;14.17;;;12.30;;
4915;SDS011;70796;52.406;13.230;2023-07-20T04:58:42;15.80;;;13.67;;
4915;SDS011;70796;52.406;13.230;2023-07-20T05:01:09;15.83;;;14.13;;
4915;SDS011;70796;52.406;13.230;2023-07-20T05:03:36;19.33;;;13.30;;
4915;SDS011;70796;52.406;13.230;2023-07-20T05:06:03;13.50;;;11.93;;
4915;SDS011;70796;52.406;13.230;2023-07-20T05:08:30;16.80;;;12.10;;
4915;SDS011;70796;52.406;13.230;2023-07-20T05:10:57;12.83;;;11.43;;
4915;SDS011;70796;52.406;13.230;2023-07-20T05:13:25;14.20;;;11.87;;
4915;SDS011;70796;52.406;13.230;2023-07-20T05:15:52;11.87;;;10.67;;
4915;SDS011;70796;52.406;13.230;2023-07-20T05:18:19;11.60;;;10.27;;
4915;SDS011;70796;52.406;13.230;2023-07-20T05:20:48;16.73;;;10.90;;
4915;SDS011;70796;52.406;13.230;2023-07-20T05:23:17;12.30;;;10.03;;
4915;SDS011;70796;52.406;13.230;2023-07-20T05:25:44;10.80;;;9.70;;
4915;SDS011;70796;52.406;13.230;2023-07-20T05:28:10;14.10;;;9.80;;
4915;SDS011;70796;52.406;13.230;2023-07-20T05:30:37;10.93;;;9.80;;
4915;SDS011;70796;52.406;13.230;2023-07-20T05:33:03;10.63;;;9.53;;
4915;SDS011;70796;52.406;13.230;2023-07-20T05:35:30;27.13;;;9.83;;
4915;SDS011;70796;52.406;13.230;2023-07-20T05:37:57;10.90;;;9.80;;
4915;SDS011;70796;52.406;13.230;2023-07-20T05:40:23;16.60;;;9.30;;
4915;SDS011;70796;52.406;13.230;2023-07-20T05:42:50;10.13;;;9.13;;
4915;SDS011;70796;52.406;13.230;2023-07-20T05:45:18;10.90;;;9.80;;
4915;SDS011;70796;52.406;13.230;2023-07-20T05:47:45;11.50;;;9.00;;
4915;SDS011;70796;52.406;13.230;2023-07-20T05:50:12;10.60;;;9.50;;
4915;SDS011;70796;52.406;13.230;2023-07-20T05:52:40;14.90;;;9.70;;
4915;SDS011;70796;52.406;13.230;2023-07-20T05:55:06;10.23;;;9.23;;
4915;SDS011;70796;52.406;13.230;2023-07-20T05:57:33;12.90;;;10.07;;
4915;SDS011;70796;52.406;13.230;2023-07-20T06:00:00;9.50;;;8.60;;
4915;SDS011;70796;52.406;13.230;2023-07-20T06:02:37;9.20;;;7.73;;
4915;SDS011;70796;52.406;13.230;2023-07-20T06:05:04;8.93;;;7.30;;
4915;SDS011;70796;52.406;13.230;2023-07-20T06:07:31;15.73;;;7.77;;
4915;SDS011;70796;52.406;13.230;2023-07-20T06:09:58;11.53;;;8.30;;
4915;SDS011;70796;52.406;13.230;2023-07-20T06:12:25;8.87;;;7.70;;
4915;SDS011;70796;52.406;13.230;2023-07-20T06:14:51;11.60;;;9.03;;
4915;SDS011;70796;52.406;13.230;2023-07-20T06:17:18;8.40;;;7.57;;
4915;SDS011;70796;52.406;13.230;2023-07-20T06:19:44;8.40;;;7.43;;
4915;SDS011;70796;52.406;13.230;2023-07-20T06:22:11;7.10;;;6.27;;
4915;SDS011;70796;52.406;13.230;2023-07-20T06:24:37;7.40;;;6.70;;
4915;SDS011;70796;52.406;13.230;2023-07-20T06:27:04;10.03;;;6.47;;
4915;SDS011;70796;52.406;13.230;2023-07-20T06:29:32;9.03;;;6.60;;
4915;SDS011;70796;52.406;13.230;2023-07-20T06:31:58;7.20;;;6.40;;
4915;SDS011;70796;52.406;13.230;2023-07-20T06:34:25;9.40;;;6.50;;
4915;SDS011;70796;52.406;13.230;2023-07-20T06:36:51;7.47;;;6.20;;
4915;SDS011;70796;52.406;13.230;2023-07-20T06:39:18;8.93;;;6.23;;
4915;SDS011;70796;52.406;13.230;2023-07-20T06:41:47;6.50;;;5.83;;
4915;SDS011;70796;52.406;13.230;2023-07-20T06:44:14;6.27;;;5.67;;
4915;SDS011;70796;52.406;13.230;2023-07-20T06:46:40;7.20;;;5.30;;
4915;SDS011;70796;52.406;13.230;2023-07-20T06:49:06;6.20;;;4.60;;
4915;SDS011;70796;52.406;13.230;2023-07-20T06:51:38;4.93;;;4.43;;
4915;SDS011;70796;52.406;13.230;2023-07-20T06:54:05;4.17;;;3.87;;
4915;SDS011;70796;52.406;13.230;2023-07-20T06:56:32;7.87;;;3.83;;
4915;SDS011;70796;52.406;13.230;2023-07-20T06:58:59;4.00;;;3.57;;
4915;SDS011;70796;52.406;13.230;2023-07-20T07:01:26;7.37;;;4.00;;
4915;SDS011;70796;52.406;13.230;2023-07-20T07:03:53;4.33;;;3.50;;
4915;SDS011;70796;52.406;13.230;2023-07-20T07:06:22;6.07;;;3.53;;
4915;SDS011;70796;52.406;13.230;2023-07-20T07:08:50;5.00;;;3.00;;
4915;SDS011;70796;52.406;13.230;2023-07-20T07:11:17;5.93;;;3.20;;
4915;SDS011;70796;52.406;13.230;2023-07-20T07:13:43;2.63;;;2.37;;
4915;SDS011;70796;52.406;13.230;2023-07-20T07:16:12;4.40;;;2.83;;
4915;SDS011;70796;52.406;13.230;2023-07-20T07:18:46;2.20;;;2.00;;
4915;SDS011;70796;52.406;13.230;2023-07-20T07:21:12;4.30;;;1.90;;
4915;SDS011;70796;52.406;13.230;2023-07-20T07:23:39;1.97;;;1.70;;
4915;SDS011;70796;52.406;13.230;2023-07-20T07:26:05;2.60;;;2.40;;
4915;SDS011;70796;52.406;13.230;2023-07-20T07:28:33;2.07;;;1.50;;
4915;SDS011;70796;52.406;13.230;2023-07-20T07:30:59;1.90;;;1.57;;
4915;SDS011;70796;52.406;13.230;2023-07-20T07:33:27;6.30;;;1.37;;
4915;SDS011;70796;52.406;13.230;2023-07-20T07:35:54;1.30;;;1.20;;
4915;SDS011;70796;52.406;13.230;2023-07-20T07:38:21;2.30;;;1.57;;
4915;SDS011;70796;52.406;13.230;2023-07-20T07:41:07;1.73;;;1.37;;
4915;SDS011;70796;52.406;13.230;2023-07-20T07:43:34;1.90;;;1.40;;
4915;SDS011;70796;52.406;13.230;2023-07-20T07:46:01;2.40;;;1.27;;
4915;SDS011;70796;52.406;13.230;2023-07-20T07:48:29;4.30;;;1.43;;
4915;SDS011;70796;52.406;13.230;2023-07-20T07:50:55;6.40;;;1.20;;
4915;SDS011;70796;52.406;13.230;2023-07-20T07:53:23;2.90;;;1.30;;
4915;SDS011;70796;52.406;13.230;2023-07-20T07:55:52;1.50;;;1.07;;
4915;SDS011;70796;52.406;13.230;2023-07-20T07:58:21;1.13;;;1.00;;
4915;SDS011;70796;52.406;13.230;2023-07-20T08:00:48;3.23;;;1.30;;
4915;SDS011;70796;52.406;13.230;2023-07-20T08:03:15;1.00;;;0.90;;
4915;SDS011;70796;52.406;13.230;2023-07-20T08:05:43;1.37;;;1.27;;
4915;SDS011;70796;52.406;13.230;2023-07-20T08:08:09;1.07;;;0.97;;
4915;SDS011;70796;52.406;13.230;2023-07-20T08:10:36;1.50;;;1.00;;
4915;SDS011;70796;52.406;13.230;2023-07-20T08:13:03;2.20;;;1.20;;
4915;SDS011;70796;52.406;13.230;2023-07-20T08:15:30;1.90;;;1.33;;
4915;SDS011;70796;52.406;13.230;2023-07-20T08:17:57;1.67;;;1.20;;
4915;SDS011;70796;52.406;13.230;2023-07-20T08:20:27;6.83;;;0.93;;
4915;SDS011;70796;52.406;13.230;2023-07-20T08:22:55;1.30;;;1.20;;
4915;SDS011;70796;52.406;13.230;2023-07-20T08:25:22;1.20;;;1.10;;
4915;SDS011;70796;52.406;13.230;2023-07-20T08:27:49;2.27;;;1.20;;
4915;SDS011;70796;52.406;13.230;2023-07-20T08:30:15;3.83;;;1.17;;
4915;SDS011;70796;52.406;13.230;2023-07-20T08:32:42;2.53;;;1.20;;
4915;SDS011;70796;52.406;13.230;2023-07-20T08:35:09;1.07;;;1.00;;
4915;SDS011;70796;52.406;13.230;2023-07-20T08:37:38;1.97;;;1.00;;
4915;SDS011;70796;52.406;13.230;2023-07-20T08:40:05;3.57;;;1.40;;
4915;SDS011;70796;52.406;13.230;2023-07-20T08:42:36;1.10;;;0.90;;
4915;SDS011;70796;52.406;13.230;2023-07-20T08:45:04;0.90;;;0.90;;
4915;SDS011;70796;52.406;13.230;2023-07-20T08:47:33;2.63;;;1.20;;
4915;SDS011;70796;52.406;13.230;2023-07-20T08:49:59;2.83;;;1.13;;
4915;SDS011;70796;52.406;13.230;2023-07-20T08:52:27;2.80;;;1.37;;
4915;SDS011;70796;52.406;13.230;2023-07-20T08:54:54;4.63;;;1.57;;
4915;SDS011;70796;52.406;13.230;2023-07-20T08:57:21;3.00;;;1.50;;
4915;SDS011;70796;52.406;13.230;2023-07-20T08:59:47;1.97;;;1.00;;
4915;SDS011;70796;52.406;13.230;2023-07-20T09:02:16;1.00;;;0.90;;
4915;SDS011;70796;52.406;13.230;2023-07-20T09:04:44;1.47;;;0.90;;
4915;SDS011;70796;52.406;13.230;2023-07-20T09:07:11;0.97;;;0.80;;
4915;SDS011;70796;52.406;13.230;2023-07-20T09:09:41;1.53;;;1.40;;
4915;SDS011;70796;52.406;13.230;2023-07-20T09:12:14;4.10;;;1.40;;
4915;SDS011;70796;52.406;13.230;2023-07-20T09:14:44;0.83;;;0.83;;
4915;SDS011;70796;52.406;13.230;2023-07-20T09:17:14;1.20;;;0.87;;
4915;SDS011;70796;52.406;13.230;2023-07-20T09:19:46;1.40;;;0.90;;
4915;SDS011;70796;52.406;13.230;2023-07-20T09:22:14;2.37;;;1.10;;
4915;SDS011;70796;52.406;13.230;2023-07-20T09:24:47;1.60;;;1.37;;
4915;SDS011;70796;52.406;13.230;2023-07-20T09:27:14;2.50;;;0.90;;
4915;SDS011;70796;52.406;13.230;2023-07-20T09:29:51;1.10;;;1.00;;
4915;SDS011;70796;52.406;13.230;2023-07-20T09:32:19;2.87;;;0.93;;
4915;SDS011;70796;52.406;13.230;2023-07-20T09:34:51;2.10;;;1.10;;
4915;SDS011;70796;52.406;13.230;2023-07-20T09:37:22;1.10;;;1.00;;
4915;SDS011;70796;52.406;13.230;2023-07-20T09:39:53;1.23;;;1.10;;
4915;SDS011;70796;52.406;13.230;2023-07-20T09:42:23;1.57;;;1.30;;
4915;SDS011;70796;52.406;13.230;2023-07-20T09:44:54;1.47;;;0.97;;
4915;SDS011;70796;52.406;13.230;2023-07-20T09:47:22;1.77;;;1.00;;
4915;SDS011;70796;52.406;13.230;2023-07-20T09:49:59;1.63;;;0.90;;
4915;SDS011;70796;52.406;13.230;2023-07-20T09:52:30;1.20;;;1.00;;
4915;SDS011;70796;52.406;13.230;2023-07-20T09:55:00;1.10;;;1.00;;
4915;SDS011;70796;52.406;13.230;2023-07-20T09:57:28;1.57;;;0.90;;
4915;SDS011;70796;52.406;13.230;2023-07-20T09:59:56;1.00;;;0.90;;
4915;SDS011;70796;52.406;13.230;2023-07-20T10:02:32;1.07;;;0.70;;
4915;SDS011;70796;52.406;13.230;2023-07-20T10:05:02;2.17;;;0.90;;
4915;SDS011;70796;52.406;13.230;2023-07-20T10:07:31;1.83;;;1.00;;
4915;SDS011;70796;52.406;13.230;2023-07-20T10:10:02;1.77;;;1.00;;
4915;SDS011;70796;52.406;13.230;2023-07-20T10:12:30;0.83;;;0.83;;
4915;SDS011;70796;52.406;13.230;2023-07-20T10:15:06;1.23;;;0.80;;
4915;SDS011;70796;52.406;13.230;2023-07-20T10:17:47;1.67;;;1.20;;
4915;SDS011;70796;52.406;13.230;2023-07-20T10:20:26;1.23;;;0.90;;
4915;SDS011;70796;52.406;13.230;2023-07-20T10:22:54;1.47;;;1.10;;
4915;SDS011;70796;52.406;13.230;2023-07-20T10:25:23;2.20;;;1.23;;
4915;SDS011;70796;52.406;13.230;2023-07-20T10:27:50;3.27;;;1.20;;
4915;SDS011;70796;52.406;13.230;2023-07-20T10:30:17;1.33;;;1.00;;
4915;SDS011;70796;52.406;13.230;2023-07-20T10:32:45;0.90;;;0.80;;
4915;SDS011;70796;52.406;13.230;2023-07-20T10:35:16;0.90;;;0.80;;
4915;SDS011;70796;52.406;13.230;2023-07-20T10:38:03;2.50;;;1.20;;
4915;SDS011;70796;52.406;13.230;2023-07-20T10:40:31;1.20;;;1.10;;
4915;SDS011;70796;52.406;13.230;2023-07-20T10:43:05;0.80;;;0.80;;
4915;SDS011;70796;52.406;13.230;2023-07-20T10:45:34;2.80;;;0.77;;
4915;SDS011;70796;52.406;13.230;2023-07-20T10:48:14;0.87;;;0.87;;
4915;SDS011;70796;52.406;13.230;2023-07-20T10:53:36;2.83;;;1.00;;
4915;SDS011;70796;52.406;13.230;2023-07-20T10:56:13;1.27;;;0.80;;
4915;SDS011;70796;52.406;13.230;2023-07-20T10:58:40;0.73;;;0.73;;
4915;SDS011;70796;52.406;13.230;2023-07-20T11:01:08;2.53;;;1.00;;
4915;SDS011;70796;52.406;13.230;2023-07-20T11:03:36;2.07;;;0.80;;
4915;SDS011;70796;52.406;13.230;2023-07-20T11:08:54;0.93;;;0.80;;
4915;SDS011;70796;52.406;13.230;2023-07-20T11:11:27;0.90;;;0.80;;
4915;SDS011;70796;52.406;13.230;2023-07-20T11:13:59;3.23;;;0.90;;
4915;SDS011;70796;52.406;13.230;2023-07-20T11:19:27;1.30;;;1.20;;
4915;SDS011;70796;52.406;13.230;2023-07-20T11:21:57;1.30;;;1.20;;
4915;SDS011;70796;52.406;13.230;2023-07-20T11:24:29;2.07;;;1.13;;
4915;SDS011;70796;52.406;13.230;2023-07-20T11:26:57;11.80;;;1.57;;
4915;SDS011;70796;52.406;13.230;2023-07-20T11:29:23;1.70;;;1.03;;
4915;SDS011;70796;52.406;13.230;2023-07-20T11:31:58;1.10;;;1.00;;
4915;SDS011;70796;52.406;13.230;2023-07-20T11:34:26;1.23;;;1.13;;
4915;SDS011;70796;52.406;13.230;2023-07-20T11:36:53;1.50;;;1.20;;
4915;SDS011;70796;52.406;13.230;2023-07-20T11:39:23;1.30;;;1.17;;
4915;SDS011;70796;52.406;13.230;2023-07-20T11:41:53;2.50;;;1.17;;
4915;SDS011;70796;52.406;13.230;2023-07-20T11:44:24;1.10;;;1.00;;
4915;SDS011;70796;52.406;13.230;2023-07-20T11:47:00;1.30;;;1.20;;
4915;SDS011;70796;52.406;13.230;2023-07-20T11:49:34;1.93;;;1.10;;
4915;SDS011;70796;52.406;13.230;2023-07-20T11:52:15;1.10;;;1.00;;
4915;SDS011;70796;52.406;13.230;2023-07-20T11:54:43;0.80;;;0.80;;
4915;SDS011;70796;52.406;13.230;2023-07-20T11:57:17;1.17;;;0.93;;
4915;SDS011;70796;52.406;13.230;2023-07-20T12:02:24;1.13;;;1.03;;
4915;SDS011;70796;52.406;13.230;2023-07-20T12:04:53;3.33;;;1.13;;
4915;SDS011;70796;52.406;13.230;2023-07-20T12:07:25;0.83;;;0.83;;
4915;SDS011;70796;52.406;13.230;2023-07-20T12:12:40;1.83;;;0.87;;
4915;SDS011;70796;52.406;13.230;2023-07-20T12:17:44;1.83;;;1.07;;
4915;SDS011;70796;52.406;13.230;2023-07-20T12:20:13;0.83;;;0.83;;
4915;SDS011;70796;52.406;13.230;2023-07-20T12:22:41;1.07;;;0.77;;
4915;SDS011;70796;52.406;13.230;2023-07-20T12:25:10;1.00;;;0.80;;
4915;SDS011;70796;52.406;13.230;2023-07-20T12:27:38;0.80;;;0.70;;
4915;SDS011;70796;52.406;13.230;2023-07-20T12:30:06;0.77;;;0.77;;
4915;SDS011;70796;52.406;13.230;2023-07-20T12:32:35;1.00;;;0.80;;
4915;SDS011;70796;52.406;13.230;2023-07-20T12:35:02;1.03;;;0.93;;
4915;SDS011;70796;52.406;13.230;2023-07-20T12:37:30;1.83;;;0.90;;
4915;SDS011;70796;52.406;13.230;2023-07-20T12:40:00;0.93;;;0.83;;
4915;SDS011;70796;52.406;13.230;2023-07-20T12:42:28;1.30;;;1.00;;
4915;SDS011;70796;52.406;13.230;2023-07-20T12:44:56;1.10;;;0.80;;
4915;SDS011;70796;52.406;13.230;2023-07-20T12:47:23;1.40;;;1.07;;
4915;SDS011;70796;52.406;13.230;2023-07-20T12:49:51;1.00;;;0.90;;
4915;SDS011;70796;52.406;13.230;2023-07-20T12:52:19;1.53;;;0.87;;
4915;SDS011;70796;52.406;13.230;2023-07-20T12:54:46;1.00;;;0.80;;
4915;SDS011;70796;52.406;13.230;2023-07-20T12:57:13;1.00;;;0.70;;
4915;SDS011;70796;52.406;13.230;2023-07-20T12:59:40;2.17;;;1.00;;
4915;SDS011;70796;52.406;13.230;2023-07-20T13:02:08;1.77;;;0.70;;
4915;SDS011;70796;52.406;13.230;2023-07-20T13:04:38;0.80;;;0.80;;
4915;SDS011;70796;52.406;13.230;2023-07-20T13:07:04;0.80;;;0.80;;
4915;SDS011;70796;52.406;13.230;2023-07-20T13:09:51;1.20;;;0.80;;
4915;SDS011;70796;52.406;13.230;2023-07-20T13:12:18;13.13;;;1.43;;
4915;SDS011;70796;52.406;13.230;2023-07-20T13:14:45;4.93;;;1.00;;
4915;SDS011;70796;52.406;13.230;2023-07-20T13:17:12;4.83;;;1.17;;
4915;SDS011;70796;52.406;13.230;2023-07-20T13:19:39;4.97;;;1.40;;
4915;SDS011;70796;52.406;13.230;2023-07-20T13:22:05;1.40;;;1.30;;
4915;SDS011;70796;52.406;13.230;2023-07-20T13:24:32;3.13;;;0.90;;
4915;SDS011;70796;52.406;13.230;2023-07-20T13:26:58;1.77;;;1.03;;
4915;SDS011;70796;52.406;13.230;2023-07-20T13:29:25;1.27;;;0.90;;
4915;SDS011;70796;52.406;13.230;2023-07-20T13:31:52;1.27;;;0.93;;
4915;SDS011;70796;52.406;13.230;2023-07-20T13:34:21;1.50;;;0.93;;
4915;SDS011;70796;52.406;13.230;2023-07-20T13:36:47;0.70;;;0.70;;
4915;SDS011;70796;52.406;13.230;2023-07-20T13:39:15;0.80;;;0.80;;
4915;SDS011;70796;52.406;13.230;2023-07-20T13:41:41;1.30;;;0.90;;
4915;SDS011;70796;52.406;13.230;2023-07-20T13:44:08;0.83;;;0.80;;
4915;SDS011;70796;52.406;13.230;2023-07-20T13:46:35;1.97;;;1.00;;
4915;SDS011;70796;52.406;13.230;2023-07-20T13:49:04;1.87;;;0.90;;
4915;SDS011;70796;52.406;13.230;2023-07-20T13:51:38;2.00;;;0.80;;
4915;SDS011;70796;52.406;13.230;2023-07-20T13:54:06;1.77;;;1.00;;
4915;SDS011;70796;52.406;13.230;2023-07-20T13:56:36;1.10;;;0.80;;
4915;SDS011;70796;52.406;13.230;2023-07-20T13:59:02;1.10;;;0.80;;
4915;SDS011;70796;52.406;13.230;2023-07-20T14:01:29;1.47;;;0.70;;
4915;SDS011;70796;52.406;13.230;2023-07-20T14:03:58;2.10;;;0.83;;
4915;SDS011;70796;52.406;13.230;2023-07-20T14:06:30;1.13;;;1.00;;
4915;SDS011;70796;52.406;13.230;2023-07-20T14:08:58;1.00;;;0.80;;
4915;SDS011;70796;52.406;13.230;2023-07-20T14:11:25;0.87;;;0.80;;
4915;SDS011;70796;52.406;13.230;2023-07-20T14:13:55;3.13;;;1.10;;
4915;SDS011;70796;52.406;13.230;2023-07-20T14:16:24;1.30;;;0.90;;
4915;SDS011;70796;52.406;13.230;2023-07-20T14:18:52;1.10;;;0.83;;
4915;SDS011;70796;52.406;13.230;2023-07-20T14:21:19;0.73;;;0.73;;
4915;SDS011;70796;52.406;13.230;2023-07-20T14:23:50;1.47;;;1.10;;
4915;SDS011;70796;52.406;13.230;2023-07-20T14:26:19;1.77;;;1.00;;
4915;SDS011;70796;52.406;13.230;2023-07-20T14:28:48;2.50;;;1.00;;
4915;SDS011;70796;52.406;13.230;2023-07-20T14:31:15;1.50;;;0.80;;
4915;SDS011;70796;52.406;13.230;2023-07-20T14:33:44;3.33;;;0.77;;
4915;SDS011;70796;52.406;13.230;2023-07-20T14:36:11;1.67;;;0.97;;
4915;SDS011;70796;52.406;13.230;2023-07-20T14:38:38;0.70;;;0.70;;
4915;SDS011;70796;52.406;13.230;2023-07-20T14:41:06;1.20;;;0.90;;
4915;SDS011;70796;52.406;13.230;2023-07-20T14:46:07;0.90;;;0.90;;
4915;SDS011;70796;52.406;13.230;2023-07-20T14:48:33;0.70;;;0.70;;
4915;SDS011;70796;52.406;13.230;2023-07-20T14:51:00;2.40;;;1.13;;
4915;SDS011;70796;52.406;13.230;2023-07-20T14:53:30;0.80;;;0.70;;
4915;SDS011;70796;52.406;13.230;2023-07-20T14:56:03;0.97;;;0.77;;
4915;SDS011;70796;52.406;13.230;2023-07-20T14:58:31;1.10;;;1.00;;
4915;SDS011;70796;52.406;13.230;2023-07-20T15:01:00;0.80;;;0.80;;
4915;SDS011;70796;52.406;13.230;2023-07-20T15:03:27;1.00;;;0.80;;
4915;SDS011;70796;52.406;13.230;2023-07-20T15:05:53;0.70;;;0.70;;
4915;SDS011;70796;52.406;13.230;2023-07-20T15:08:21;1.90;;;1.07;;
4915;SDS011;70796;52.406;13.230;2023-07-20T15:10:49;1.00;;;0.80;;
4915;SDS011;70796;52.406;13.230;2023-07-20T15:13:15;1.00;;;0.90;;